Hampton, Virginia
Current Conditions -  °F | °C
As of 1:58 AM on Thursday 18 Dec 2014 (Local Time) from KLFI Reporting Station
Clear Clear  
Wind Chill: 34°   Ceiling: Unl
Heat Index: 40°   Visibility: 10mi
Dew Point: 28°   Wind: 9mph
Humidity: 62%   Direction: 340°NNW
Pressure: 30.09"   Gusts: NA
Location:  37.03°N, 76.34°W
Report Text: KLFI 180658Z AUTO 34008KT 10SM CLR 05/M02 A3009 RMK AO2 SLP196 T00461022
Loading
Personal Weather Stations






























Interactive Weather Map New forecast layout! Learn more

10-Day Weather Forecast

Advertisements
Track Severe Weather on mobile